This is the latest recevied weather packets stored in our database for station/object KC0QBU-13. If no packets are shown the sender has not sent any weather packets the latest 10 day(s).
| Time | Temp. | Humidity | Pressure | Rain* | Wind** | Luminosity | Snow |
|---|---|---|---|---|---|---|---|
| 1777342504 | 15° C | 69% | 1013 hPa | 0 mm | - | - | - |
| 1777341003 | 15.56° C | 68% | 1012.3 hPa | 0 mm | - | - | - |
| 1777340404 | 15.56° C | 68% | 1012 hPa | 0 mm | - | - | - |
| 1777340104 | 16.11° C | 68% | 1011.9 hPa | 0 mm | - | - | - |
| 1777338004 | 16.67° C | 70% | 1011.2 hPa | 0 mm | - | - | - |
| 1777336804 | 17.22° C | 69% | 1010.8 hPa | 0 mm | - | - | - |
| 1777335603 | 17.78° C | 70% | 1010.4 hPa | 0 mm | - | - | - |
| 1777334704 | 17.78° C | 69% | 1010.1 hPa | 0 mm | - | - | - |
| 1777333503 | 18.33° C | 66% | 1009.6 hPa | 0 mm | - | - | - |
| 1777332004 | 18.89° C | 69% | 1009.2 hPa | 0 mm | - | - | - |
| 1777330804 | 20.56° C | 66% | 1008.7 hPa | 0 mm | - | - | - |
| 1777330504 | 20.56° C | 64% | 1008.8 hPa | 0 mm | - | - | - |
| 1777328104 | 22.22° C | 63% | 1007.8 hPa | 0 mm | - | - | - |
| 1777327504 | 22.22° C | 63% | 1007.5 hPa | 0 mm | - | - | - |
| 1777325104 | 21.67° C | 65% | 1006.9 hPa | 0 mm | - | - | - |
| 1777323604 | 22.22° C | 65% | 1006.7 hPa | 0 mm | - | - | - |
| 1777322704 | 22.78° C | 64% | 1006 hPa | 0 mm | - | - | - |
| 1777322103 | 22.22° C | 61% | 1005.6 hPa | 0 mm | - | - | - |
| 1777320304 | 23.89° C | 63% | 1004.7 hPa | 0 mm | - | - | - |
| 1777320003 | 24.44° C | 61% | 1004.7 hPa | 0 mm | - | - | - |
| 1777319703 | 24.44° C | 63% | 1004.7 hPa | 0 mm | - | - | - |
| 1777317303 | 24.44° C | 65% | 1004.4 hPa | 0 mm | - | - | - |
| 1777317004 | 23.89° C | 67% | 1004.4 hPa | 0 mm | - | - | - |
| 1777316704 | 23.33° C | 66% | 1004.4 hPa | 0 mm | - | - | - |
| 1777315503 | 23.89° C | 67% | 1004.4 hPa | 0 mm | - | - | - |
* Rain latest hour (hover to see other rain measurements)
** Current wind speed in m/s (hover to see current wind gust speed)